createdAt,value
2018-07-11T00:00:14.016Z,17.12
2018-07-11T00:02:42.649Z,17.09
2018-07-11T00:05:11.105Z,17.09
2018-07-11T00:07:39.629Z,17.07
2018-07-11T00:10:08.187Z,17.07
2018-07-11T00:12:36.792Z,17.07
2018-07-11T00:15:05.567Z,17.08
2018-07-11T00:17:34.529Z,17.08
2018-07-11T00:20:02.983Z,17.08
2018-07-11T00:22:31.693Z,17.05
2018-07-11T00:25:00.150Z,17.02
2018-07-11T00:27:28.604Z,17.00
2018-07-11T00:29:57.254Z,17.02
2018-07-11T00:32:25.902Z,16.99
2018-07-11T00:34:54.397Z,16.97
2018-07-11T00:37:22.920Z,16.96
2018-07-11T00:39:51.445Z,16.92
2018-07-11T00:42:19.865Z,16.87
2018-07-11T00:44:48.255Z,16.85
2018-07-11T00:47:16.819Z,16.86
2018-07-11T00:49:54.781Z,16.87
2018-07-11T00:52:23.259Z,16.90
2018-07-11T00:54:51.889Z,16.92
2018-07-11T00:57:20.471Z,16.91
2018-07-11T00:59:49.013Z,16.83
2018-07-11T01:02:17.564Z,16.79
2018-07-11T01:04:46.049Z,16.77
2018-07-11T01:07:14.621Z,16.77
2018-07-11T01:09:49.807Z,16.75
2018-07-11T01:12:19.307Z,16.71
2018-07-11T01:14:48.397Z,16.66
2018-07-11T01:17:22.077Z,16.64
2018-07-11T01:19:51.030Z,16.63
2018-07-11T01:22:19.538Z,16.59
2018-07-11T01:24:48.030Z,16.55
2018-07-11T01:27:16.747Z,16.52
2018-07-11T01:29:45.389Z,16.52
2018-07-11T01:32:13.894Z,16.54
2018-07-11T01:34:42.519Z,16.43
2018-07-11T01:37:10.975Z,16.37
2018-07-11T01:39:39.495Z,16.36
2018-07-11T01:42:08.012Z,16.33
2018-07-11T01:44:36.477Z,16.35
2018-07-11T01:47:04.946Z,16.30
2018-07-11T01:49:33.505Z,16.26
2018-07-11T01:52:13.177Z,16.24
2018-07-11T01:54:41.681Z,16.25
2018-07-11T01:57:10.261Z,16.23
2018-07-11T01:59:38.735Z,16.21
2018-07-11T02:02:07.190Z,16.20
2018-07-11T02:04:37.814Z,16.13
2018-07-11T02:07:06.305Z,16.13
2018-07-11T02:09:34.879Z,16.20
2018-07-11T02:12:03.843Z,16.19
2018-07-11T02:14:32.322Z,16.15
2018-07-11T02:17:00.785Z,16.14
2018-07-11T02:19:38.651Z,16.11
2018-07-11T02:22:07.244Z,16.06
2018-07-11T02:24:35.723Z,16.02
2018-07-11T02:27:04.197Z,16.02
2018-07-11T02:29:37.747Z,16.04
2018-07-11T02:32:06.233Z,16.05
2018-07-11T02:34:35.487Z,16.01
2018-07-11T02:37:04.929Z,15.94
2018-07-11T02:39:47.186Z,15.92
2018-07-11T02:42:15.642Z,15.93
2018-07-11T02:44:44.357Z,15.93
2018-07-11T02:47:18.107Z,15.91
2018-07-11T02:52:44.155Z,15.93
2018-07-11T02:55:12.685Z,15.89
2018-07-11T02:57:41.114Z,15.73
2018-07-11T03:00:09.588Z,15.56
2018-07-11T03:02:38.749Z,15.37
2018-07-11T03:05:07.231Z,15.39
2018-07-11T03:07:35.769Z,15.48
2018-07-11T03:10:04.567Z,15.57
2018-07-11T03:12:33.279Z,15.64
2018-07-11T03:15:01.823Z,15.67
2018-07-11T03:17:30.394Z,15.70
2018-07-11T03:19:59.090Z,15.70
2018-07-11T03:22:27.685Z,15.75
2018-07-11T03:24:56.382Z,15.78
2018-07-11T03:27:24.938Z,15.81
2018-07-11T03:29:53.508Z,15.83
2018-07-11T03:32:22.006Z,15.79
2018-07-11T03:34:50.502Z,15.77
2018-07-11T03:37:18.933Z,15.72
2018-07-11T03:39:56.932Z,15.64
2018-07-11T03:42:25.447Z,15.74
2018-07-11T03:44:54.499Z,15.82
2018-07-11T03:47:23.058Z,15.85
2018-07-11T03:49:51.610Z,15.88
2018-07-11T03:52:20.190Z,15.92
2018-07-11T03:54:48.947Z,15.91
2018-07-11T03:57:17.369Z,15.95
2018-07-11T03:59:45.931Z,16.01
2018-07-11T04:02:14.657Z,16.07
2018-07-11T04:04:43.214Z,16.10
2018-07-11T04:07:11.797Z,16.14
2018-07-11T04:09:40.307Z,16.13
2018-07-11T04:12:08.885Z,16.11
2018-07-11T04:14:37.315Z,16.18
2018-07-11T04:17:06.085Z,16.04
2018-07-11T04:19:34.633Z,15.87
2018-07-11T04:22:03.203Z,15.79
2018-07-11T04:24:31.727Z,15.70
2018-07-11T04:27:00.565Z,15.72
2018-07-11T04:29:29.163Z,15.66
2018-07-11T04:31:57.865Z,15.66
2018-07-11T04:34:26.442Z,15.75
2018-07-11T04:36:55.828Z,15.87
2018-07-11T04:39:24.491Z,15.94
2018-07-11T04:41:53.045Z,15.95
2018-07-11T04:44:21.527Z,15.93
2018-07-11T04:46:50.247Z,15.86
2018-07-11T04:49:18.873Z,15.77
2018-07-11T04:51:47.869Z,15.70
2018-07-11T04:54:16.541Z,15.62
2018-07-11T04:56:45.006Z,15.53
2018-07-11T04:59:13.718Z,15.62
2018-07-11T05:01:42.185Z,15.79
2018-07-11T05:04:10.706Z,15.95
2018-07-11T05:06:39.235Z,15.87
2018-07-11T05:09:07.739Z,15.79
2018-07-11T05:11:37.085Z,15.94
2018-07-11T05:14:05.662Z,16.12
2018-07-11T05:16:34.117Z,16.24
2018-07-11T05:19:07.683Z,16.35
2018-07-11T05:21:36.253Z,16.44
2018-07-11T05:24:04.817Z,16.35
2018-07-11T05:26:33.946Z,16.32
2018-07-11T05:29:02.993Z,16.22
2018-07-11T05:31:31.507Z,16.40
2018-07-11T05:34:00.378Z,16.53
2018-07-11T05:36:29.150Z,16.42
2018-07-11T05:38:57.747Z,16.43
2018-07-11T05:41:26.265Z,16.53
2018-07-11T05:43:54.867Z,16.67
2018-07-11T05:46:23.437Z,16.59
2018-07-11T05:48:54.675Z,16.60
2018-07-11T05:51:28.143Z,16.55
2018-07-11T05:53:56.648Z,16.47
2018-07-11T05:56:25.175Z,16.55
2018-07-11T05:58:53.745Z,16.63
2018-07-11T06:01:22.229Z,16.64
2018-07-11T06:03:50.747Z,16.73
2018-07-11T06:06:19.399Z,16.81
2018-07-11T06:08:47.835Z,16.78
2018-07-11T06:11:23.059Z,16.85
2018-07-11T06:13:52.443Z,16.91
2018-07-11T06:16:21.070Z,16.94
2018-07-11T06:18:49.895Z,16.85
2018-07-11T06:21:18.998Z,16.89
2018-07-11T06:23:47.673Z,16.98
2018-07-11T06:26:16.195Z,17.04
2018-07-11T06:28:45.557Z,17.05
2018-07-11T06:31:14.131Z,17.08
2018-07-11T06:33:42.775Z,17.04
2018-07-11T06:36:11.269Z,17.05
2018-07-11T06:38:39.792Z,17.11
2018-07-11T06:41:09.660Z,17.16
2018-07-11T06:43:39.193Z,17.11
2018-07-11T06:46:07.969Z,17.19
2018-07-11T06:48:37.657Z,17.30
2018-07-11T06:51:06.915Z,17.40
2018-07-11T06:53:37.140Z,17.36
2018-07-11T06:56:07.811Z,17.38
2018-07-11T06:58:36.421Z,17.50
2018-07-11T07:01:04.879Z,17.59
2018-07-11T07:03:33.491Z,17.67
2018-07-11T07:06:02.063Z,17.69
2018-07-11T07:08:31.261Z,17.57
2018-07-11T07:11:00.757Z,17.62
2018-07-11T07:13:29.341Z,17.62
2018-07-11T07:15:57.805Z,17.68
2018-07-11T07:18:26.380Z,17.76
2018-07-11T07:20:54.945Z,17.81
2018-07-11T07:23:23.447Z,17.87
2018-07-11T07:25:52.045Z,17.85
2018-07-11T07:28:20.522Z,17.95
2018-07-11T07:30:49.049Z,17.90
2018-07-11T07:33:17.775Z,17.87
2018-07-11T07:35:46.401Z,17.83
2018-07-11T07:38:15.371Z,17.82
2018-07-11T07:40:44.292Z,17.91
2018-07-11T07:43:12.886Z,17.95
2018-07-11T07:45:41.974Z,17.94
2018-07-11T07:48:10.668Z,17.98
2018-07-11T07:50:39.229Z,18.04
2018-07-11T07:53:07.798Z,18.04
2018-07-11T07:55:36.348Z,17.98
2018-07-11T07:58:04.860Z,17.96
2018-07-11T08:00:33.454Z,18.07
2018-07-11T08:03:02.098Z,18.25
2018-07-11T08:05:30.755Z,18.34
2018-07-11T08:08:00.889Z,18.42
2018-07-11T08:10:29.446Z,18.43
2018-07-11T08:12:58.117Z,18.35
2018-07-11T08:15:26.724Z,18.32
2018-07-11T08:17:55.409Z,18.36
2018-07-11T08:20:24.193Z,18.57
2018-07-11T08:23:13.545Z,18.69
2018-07-11T08:25:54.839Z,18.69
2018-07-11T08:28:41.929Z,18.73
2018-07-11T08:35:27.752Z,18.75
2018-07-11T08:41:07.258Z,18.99
2018-07-11T08:45:52.383Z,19.03
2018-07-11T08:51:10.469Z,19.26
2018-07-11T08:53:50.039Z,19.53
2018-07-11T08:56:27.795Z,19.66
2018-07-11T08:59:39.223Z,19.80
2018-07-11T09:03:16.683Z,19.98
2018-07-11T09:07:00.473Z,20.02
2018-07-11T09:11:43.607Z,20.15
2018-07-11T09:17:27.645Z,20.11
2018-07-11T09:20:12.357Z,20.07
2018-07-11T09:23:07.343Z,20.16
2018-07-11T09:25:35.891Z,20.15
2018-07-11T09:28:05.715Z,20.08
2018-07-11T09:30:34.579Z,20.13
2018-07-11T09:33:03.873Z,20.22
2018-07-11T09:35:32.584Z,20.28
2018-07-11T09:38:01.910Z,20.34
2018-07-11T09:40:30.563Z,20.34
2018-07-11T09:42:59.173Z,20.38
2018-07-11T09:45:27.843Z,20.29
2018-07-11T09:47:56.435Z,20.19
2018-07-11T09:50:25.189Z,20.10
2018-07-11T09:52:55.139Z,20.10
2018-07-11T09:55:23.904Z,19.99
2018-07-11T09:57:52.610Z,19.99
2018-07-11T10:00:26.377Z,20.12
2018-07-11T10:02:55.839Z,20.14
